Glenburn, ND (58740)

7:04 AM CST on February 14, 2016 (GMT -0600)
APRSWXNET | | Change Station
CLOSE
Current Station
Personal Weather Station
Location: Glenburn, ND
Elevation: 1574 ft
Nearby Weather Stations
Active Advisory: Winter Weather Advisory Active Notice: Record Report

Elev 1574 ft 48.45 °N, 101.22 °W | Updated 30 minutes ago

Overcast
Overcast
19 °F
Feels Like 13 °F
N
4
Wind Variable Wind from WNW
Gusts 8.0 mph

Today
High -- | Low -- °F
--% Chance of Precip.
Yesterday
High -- | Low -- °F
Precip. -- in
Pressure 29.80 in
Visibility 10.0 miles
Clouds Mostly Cloudy 600 ft
Overcast 1600 ft
Windchill 13 °F
Dew Point 17 °F
Humidity 92%
Rainfall in
Snow Depth Not available.
7:55 AM 6:04 PM
Waxing Crescent, 41% visible
METAR KMIB 141258Z AUTO 00000KT 10SM BKN006 OVC016 M06/M06 A2970 RMK AO2 BKN V OVC CIG 001 RWY11 SLP091 T10561057 $
Pressure 29.80 in
Visibility 10.0 miles
Clouds Mostly Cloudy 600 ft
Overcast 1600 ft
Windchill 13 °F
Dew Point 17 °F
Humidity 92%
Rainfall in
Snow Depth Not available.
7:55 AM 6:04 PM
Waxing Crescent, 41% visible
METAR KMIB 141258Z AUTO 00000KT 10SM BKN006 OVC016 M06/M06 A2970 RMK AO2 BKN V OVC CIG 001 RWY11 SLP091 T10561057 $

10-Day Weather Forecast

Almanac

Astronomy

Feb. 14, 2016 Rise Set
Actual Time
Civil Twilight
Nautical Twilight
Astronomical Twilight
Moon
Length of Visible Light
Length of Day
Tomorrow will be .
, % of the Moon is Illuminated

Today's Extremes

State Highs State Lows

Community

WunderPhotos

Upload Photos

1,892,777 photos uploaded!

WunderBlog® & News

Nearby

Air Quality

  Air Quality AQ Index Pollutant
Not available.

Snow Depth

Station Depth Elevation

Earthquake Activity

City Distance Mag. Time & Date
Minimum magnitude displayed is 2.5.

Coastal Water Temperatures

Place Temperature

Stations

Nearby Weather Stations

Station Location Temp. Windchill Dew Point Humidity Wind Precip. Elev Updated Type
                   

Watches & Warnings

Winter Weather Advisory
Issued: 6:33 AM CST Feb. 14, 2016 – National Weather Service

... Winter Weather Advisory remains in effect until noon CST
today...

* expect freezing drizzle to continue... diminishing around noon
CST.

* Additional ice accumulations of a glaze are expected.

* The ice will result in very slippery conditions on
sidewalks... roads and bridges.

Precautionary/preparedness actions...

A Winter Weather Advisory for blowing snow means that
visibilities will be limited due to strong winds blowing snow
around. Use caution when traveling... especially in open areas.
The latest Road conditions for the state you are calling from can
be obtained by calling 5 1 1.